地図

経路データ

SID SEASON NUMBER BASIN SUBBASIN NAME ISO_TIME NATURE LAT LON WMO_WIND WMO_PRES WMO_AGENCY TRACK_TYPE DIST2LAND LANDFALL IFLAG USA_AGENCY USA_ATCF_ID USA_LAT USA_LON USA_RECORD USA_STATUS USA_WIND USA_PRES USA_SSHS USA_R34_NE USA_R34_SE USA_R34_SW USA_R34_NW USA_R50_NE USA_R50_SE USA_R50_SW USA_R50_NW USA_R64_NE USA_R64_SE USA_R64_SW USA_R64_NW USA_POCI USA_ROCI USA_RMW USA_EYE TOKYO_LAT TOKYO_LON TOKYO_GRADE TOKYO_WIND TOKYO_PRES TOKYO_R50_DIR TOKYO_R50_LONG TOKYO_R50_SHORT TOKYO_R30_DIR TOKYO_R30_LONG TOKYO_R30_SHORT TOKYO_LAND CMA_LAT CMA_LON CMA_CAT CMA_WIND CMA_PRES HKO_LAT HKO_LON HKO_CAT HKO_WIND HKO_PRES NEWDELHI_LAT NEWDELHI_LON NEWDELHI_GRADE NEWDELHI_WIND NEWDELHI_PRES NEWDELHI_CI NEWDELHI_DP NEWDELHI_POCI REUNION_LAT REUNION_LON REUNION_TYPE REUNION_WIND REUNION_PRES REUNION_TNUM REUNION_CI REUNION_RMW REUNION_R34_NE REUNION_R34_SE REUNION_R34_SW REUNION_R34_NW REUNION_R50_NE REUNION_R50_SE REUNION_R50_SW REUNION_R50_NW REUNION_R64_NE REUNION_R64_SE REUNION_R64_SW REUNION_R64_NW BOM_LAT BOM_LON BOM_TYPE BOM_WIND BOM_PRES BOM_TNUM BOM_CI BOM_RMW BOM_R34_NE BOM_R34_SE BOM_R34_SW BOM_R34_NW BOM_R50_NE BOM_R50_SE BOM_R50_SW BOM_R50_NW BOM_R64_NE BOM_R64_SE BOM_R64_SW BOM_R64_NW BOM_ROCI BOM_POCI BOM_EYE BOM_POS_METHOD BOM_PRES_METHOD NADI_LAT NADI_LON NADI_CAT NADI_WIND NADI_PRES WELLINGTON_LAT WELLINGTON_LON WELLINGTON_WIND WELLINGTON_PRES DS824_LAT DS824_LON DS824_STAGE DS824_WIND DS824_PRES TD9636_LAT TD9636_LON TD9636_STAGE TD9636_WIND TD9636_PRES TD9635_LAT TD9635_LON TD9635_WIND TD9635_PRES TD9635_ROCI NEUMANN_LAT NEUMANN_LON NEUMANN_CLASS NEUMANN_WIND NEUMANN_PRES MLC_LAT MLC_LON MLC_CLASS MLC_WIND MLC_PRES USA_GUST BOM_GUST BOM_GUST_PER REUNION_GUST REUNION_GUST_PER USA_SEAHGT USA_SEARAD_NE USA_SEARAD_SE USA_SEARAD_SW USA_SEARAD_NW STORM_SPEED STORM_DIR
2021223N12179 2021 40 WP MM OMAIS 2021-08-10 12:00:00 TS 12.2000 178.850 PROVISIONAL 2511 2511 O_____________ tcvightals WP162021 12.2000 179.000 25 1007 -1 1013 140 30 8 274
2021223N12179 2021 40 WP MM OMAIS 2021-08-10 15:00:00 TS 12.2264 178.425 PROVISIONAL 2559 2559 P_____________ WP162021 12.2627 178.485 27 1007 -1 1012 127 32 8 273
2021223N12179 2021 40 WP MM OMAIS 2021-08-10 18:00:00 TS 12.2500 178.000 PROVISIONAL 2592 2592 O_____________ tcvightals WP162021 12.3000 178.000 29 1008 -1 1012 115 35 8 273
2021223N12179 2021 40 WP MM OMAIS 2021-08-10 21:00:00 TS 12.2712 177.581 PROVISIONAL 2631 2631 P_____________ WP162021 12.2999 177.570 29 1007 -1 1012 115 35 8 274
2021223N12179 2021 40 WP MM OMAIS 2021-08-11 00:00:00 TS 12.3000 177.200 PROVISIONAL 2669 2669 O_____________ tcvitals WP162021 12.3000 177.200 29 1007 -1 1013 115 35 7 277
2021223N12179 2021 40 WP MM OMAIS 2021-08-11 03:00:00 TS 12.3493 176.888 PROVISIONAL 2698 2693 P_____________ WP162021 12.3724 176.893 29 1006 -1 1011 112 35 6 274
2021223N12179 2021 40 WP MM OMAIS 2021-08-11 06:00:00 TS 12.3419 176.582 PROVISIONAL 2727 2727 O_____________ tcvightals WP162021 12.4000 176.600 29 1006 -1 1010 110 35 40 6 258
2021223N12179 2021 40 WP MM OMAIS 2021-08-11 09:00:00 TS 12.2177 176.244 PROVISIONAL 2771 2771 P_____________ WP162021 12.2574 176.272 29 1007 -1 1011 122 35 7 251
2021223N12179 2021 40 WP MM OMAIS 2021-08-11 12:00:00 TS 12.0996 175.872 PROVISIONAL 2805 2805 O_____________ tcvightals WP162021 12.1000 175.900 29 1008 -1 1012 135 35 8 260
2021223N12179 2021 40 WP MM OMAIS 2021-08-11 15:00:00 TS 12.0757 175.455 PROVISIONAL 2814 2782 P_____________ WP162021 12.0775 175.473 29 1007 -1 1011 127 35 9 269
2021223N12179 2021 40 WP MM OMAIS 2021-08-11 18:00:00 TS 12.0871 174.997 PROVISIONAL 2782 2758 O_____________ tcvightals WP162021 12.1000 175.000 29 1007 -1 1011 120 35 9 269
2021223N12179 2021 40 WP MM OMAIS 2021-08-11 21:00:00 TS 12.0548 174.526 PROVISIONAL 2751 2721 P_____________ WP162021 12.0473 174.530 27 1008 -1 1011 97 37 10 271
2021223N12179 2021 40 WP MM OMAIS 2021-08-12 00:00:00 TS 12.1000 174.000 PROVISIONAL 2721 2705 O_____________ tcvitals WP162021 12.1000 174.000 25 1010 -1 1012 75 40 11 286
2021223N12179 2021 40 WP MM OMAIS 2021-08-12 03:00:00 TS 12.3612 173.397 PROVISIONAL 2715 2701 P_____________ WP162021 12.4649 173.381 25 1008 -1 1010 70 35 13 292
2021223N12179 2021 40 WP MM OMAIS 2021-08-12 06:00:00 TS 12.6087 172.737 PROVISIONAL 2695 2664 O_____________ tcvightals WP162021 12.8000 172.700 25 1007 -1 1008 65 30 13 281
2021223N12179 2021 40 WP MM OMAIS 2021-08-12 09:00:00 TS 12.6052 172.056 PROVISIONAL 2664 2618 P_____________ WP162021 12.7524 172.007 27 1005 -1 1008 67 32 14 267
2021223N12179 2021 40 WP MM OMAIS 2021-08-12 12:00:00 TS 12.5338 171.356 PROVISIONAL 2618 2584 O_____________ tcvightals WP162021 12.6000 171.300 29 1003 -1 1008 70 35 14 268
2021223N12179 2021 40 WP MM OMAIS 2021-08-12 15:00:00 TS 12.5489 170.648 PROVISIONAL 2580 2563 P_____________ WP162021 12.5774 170.593 29 1005 -1 1009 75 40 14 272
2021223N12179 2021 40 WP MM OMAIS 2021-08-12 18:00:00 TS 12.5919 169.947 PROVISIONAL 2559 2533 O_____________ tcvightals WP162021 12.6000 169.900 29 1007 -1 1010 80 45 13 274
2021223N12179 2021 40 WP MM OMAIS 2021-08-12 21:00:00 TS 12.6439 169.273 PROVISIONAL 2533 2516 P_____________ WP162021 12.6421 169.265 32 1007 -1 1010 77 47 13 275
2021223N12179 2021 40 WP MM OMAIS 2021-08-13 00:00:00 TS 12.7000 168.600 PROVISIONAL 2516 2490 O_____________ tcvitals WP162021 12.7000 168.600 35 1007 0 50 35 1010 75 50 13 274
2021223N12179 2021 40 WP MM OMAIS 2021-08-13 03:00:00 TS 12.7406 167.898 PROVISIONAL 2490 2463 P_____________ WP162021 12.7579 167.763 35 1006 0 45 42 1009 70 50 13 273
2021223N12179 2021 40 WP MM OMAIS 2021-08-13 06:00:00 TS 12.7654 167.227 PROVISIONAL 2456 2421 O_____________ tcvightals WP162021 12.8000 167.000 35 1005 0 40 50 1009 65 50 12 272
2021223N12179 2021 40 WP MM OMAIS 2021-08-13 09:00:00 TS 12.7748 166.674 PROVISIONAL 2421 2386 P_____________ WP162021 12.8294 166.578 35 1006 0 42 1010 97 47 11 269
2021223N12179 2021 40 WP MM OMAIS 2021-08-13 12:00:00 TS 12.7468 166.119 PROVISIONAL 2371 2330 O_____________ tcvightals WP162021 12.8000 166.200 35 1007 0 45 50 1011 130 45 12 264
2021223N12179 2021 40 WP MM OMAIS 2021-08-13 15:00:00 TS 12.6534 165.459 PROVISIONAL 2330 2275 P_____________ WP162021 12.6498 165.617 32 1006 -1 1010 130 55 14 262
2021223N12179 2021 40 WP MM OMAIS 2021-08-13 18:00:00 TS 12.5549 164.735 PROVISIONAL 2268 2212 O_____________ tcvightals WP162021 12.5000 164.900 29 1006 -1 1010 130 65 15 265
2021223N12179 2021 40 WP MM OMAIS 2021-08-13 21:00:00 TS 12.5213 163.976 PROVISIONAL 2212 2160 P_____________ WP162021 12.4926 164.065 29 1006 -1 1010 135 62 15 268
2021223N12179 2021 40 WP MM OMAIS 2021-08-14 00:00:00 TS 12.5000 163.200 PROVISIONAL 2160 2107 O_____________ tcvitals WP162021 12.5000 163.200 29 1006 -1 1010 140 60 15 267
2021223N12179 2021 40 WP MM OMAIS 2021-08-14 03:00:00 TS 12.4429 162.441 PROVISIONAL 2101 2060 P_____________ WP162021 12.3997 162.427 32 1004 -1 1009 140 50 15 266
2021223N12179 2021 40 WP MM OMAIS 2021-08-14 06:00:00 TS 12.3870 161.696 PROVISIONAL 2060 2020 O_____________ tcvightals WP162021 12.3000 161.700 35 1003 0 70 45 15 65 1009 140 40 45 15 266
2021223N12179 2021 40 WP MM OMAIS 2021-08-14 09:00:00 TS 12.3532 160.957 PROVISIONAL 2020 1971 P_____________ WP162021 12.2848 160.985 35 1003 0 67 40 65 1010 130 40 14 268
2021223N12179 2021 40 WP MM OMAIS 2021-08-14 12:00:00 TS 12.3466 160.240 PROVISIONAL 1965 1944 O_____________ tcvightals WP162021 12.3000 160.300 35 1004 0 65 35 65 1011 120 40 14 271
2021223N12179 2021 40 WP MM OMAIS 2021-08-14 15:00:00 TS 12.3695 159.576 PROVISIONAL 1944 1909 P_____________ WP162021 12.2844 159.695 35 1004 0 65 35 65 1011 120 40 13 273
2021223N12179 2021 40 WP MM OMAIS 2021-08-14 18:00:00 TS 12.4161 158.882 PROVISIONAL 1909 1879 O_____________ tcvightals WP162021 12.3000 159.000 35 1004 0 65 35 65 1011 120 40 15 274
2021223N12179 2021 40 WP MM OMAIS 2021-08-14 21:00:00 TS 12.4700 158.090 PROVISIONAL 1879 1844 P_____________ WP162021 12.3849 158.075 32 1004 -1 1011 120 40 16 274
2021223N12179 2021 40 WP MM OMAIS 2021-08-15 00:00:00 TS 12.5333 157.233 PROVISIONAL 1839 1818 O_____________ tcvitals WP162021 12.5000 157.000 29 1004 -1 1011 120 40 40 18 274
2021223N12179 2021 40 WP MM OMAIS 2021-08-15 03:00:00 TS 12.6012 156.304 PROVISIONAL 1815 1794 P_____________ WP162021 12.6086 155.723 29 1005 -1 1010 110 40 17 275
2021223N12179 2021 40 WP MM OMAIS 2021-08-15 06:00:00 TS 12.6730 155.454 PROVISIONAL 1798 1781 O_____________ tcvightals WP162021 12.7000 154.700 29 1007 -1 1010 100 40 40 14 276
2021223N12179 2021 40 WP MM OMAIS 2021-08-15 09:00:00 TS 12.7457 154.879 PROVISIONAL 1781 1778 P_____________ WP162021 12.7563 154.490 27 1008 -1 1011 105 40 11 278
2021223N12179 2021 40 WP MM OMAIS 2021-08-15 12:00:00 TS 12.8265 154.351 PROVISIONAL 1779 1774 O_____________ tcvightals WP162021 12.8000 154.400 25 1009 -1 1012 110 40 12 278
2021223N12179 2021 40 WP MM OMAIS 2021-08-15 15:00:00 TS 12.9193 153.649 PROVISIONAL 1773 1769 P_____________ WP162021 12.8428 153.747 25 1007 -1 1012 110 40 14 278
2021223N12179 2021 40 WP MM OMAIS 2021-08-15 18:00:00 TS 13.0168 152.881 PROVISIONAL 1772 1769 O_____________ tcvightals WP162021 12.9000 152.900 25 1006 -1 1012 110 40 15 277
2021223N12179 2021 40 WP MM OMAIS 2021-08-15 21:00:00 TS 13.1048 152.111 PROVISIONAL 1775 1767 P_____________ WP162021 12.9699 152.100 25 1006 -1 1012 110 40 15 277
2021223N12179 2021 40 WP MM OMAIS 2021-08-16 00:00:00 TS 13.2000 151.333 PROVISIONAL 1767 1761 O_____________ tcvitals WP162021 13.1000 151.300 25 1006 -1 1012 110 40 15 279
2021223N12179 2021 40 WP MM OMAIS 2021-08-16 03:00:00 TS 13.3309 150.568 PROVISIONAL 1761 1756 P_____________ WP162021 13.3721 150.550 22 1007 -1 1011 97 45 15 278
2021223N12179 2021 40 WP MM OMAIS 2021-08-16 06:00:00 TS 13.4191 149.789 PROVISIONAL 1756 1745 O_____________ tcvightals WP162021 13.6000 149.800 19 1008 -1 1010 85 50 16 272
2021223N12179 2021 40 WP MM OMAIS 2021-08-16 09:00:00 TS 13.3883 148.975 PROVISIONAL 1745 1727 P_____________ WP162021 13.6321 149.030 22 1007 -1 1010 85 50 16 266
2021223N12179 2021 40 WP MM OMAIS 2021-08-16 12:00:00 NR 13.2971 148.135 PROVISIONAL 1727 1714 O_____________ tcvightals WP162021 13.5000 148.200 25 1007 -1 1011 85 50 17 263
2021223N12179 2021 40 WP MM OMAIS 2021-08-16 15:00:00 NR 13.1803 147.248 PROVISIONAL 1714 1702 P_____________ WP162021 13.1629 147.219 22 1007 -1 1010 110 50 17 264
2021223N12179 2021 40 WP MM OMAIS 2021-08-16 18:00:00 NR 13.1097 146.413 PROVISIONAL 1703 1703 O_____________ tcvightals WP162021 12.9000 146.300 19 1008 -1 1010 135 50 15 270
2021223N12179 2021 40 WP MM OMAIS 2021-08-16 21:00:00 NR 13.1826 145.725 PROVISIONAL 1717 1717 P_____________ WP162021 13.0469 145.648 19 1008 -1 1010 140 50 13 278
2021223N12179 2021 40 WP MM OMAIS 2021-08-17 00:00:00 NR 13.3000 145.100 PROVISIONAL 1733 1733 O_____________ tcvitals WP162021 13.3000 145.100 19 1009 -1 1011 145 50 12 278
2021223N12179 2021 40 WP MM OMAIS 2021-08-17 03:00:00 NR 13.3483 144.480 PROVISIONAL 1740 1740 P_____________ WP162021 13.3718 144.560 22 1009 -1 1011 107 50 13 274
2021223N12179 2021 40 WP MM OMAIS 2021-08-17 06:00:00 NR 13.3844 143.781 PROVISIONAL 1763 1758 O_____________ tcvightals WP162021 13.4000 143.900 25 1009 -1 1011 70 50 16 273
2021223N12179 2021 40 WP MM OMAIS 2021-08-17 09:00:00 NR 13.4221 142.881 PROVISIONAL 1758 1737 P_____________ WP162021 13.4277 142.960 25 1009 -1 1011 115 65 18 273
2021223N12179 2021 40 WP MM OMAIS 2021-08-17 12:00:00 NR 13.4850 141.942 PROVISIONAL 1733 1688 O_____________ tcvightals WP162021 13.5000 141.900 25 1009 -1 1011 160 80 17 276
2021223N12179 2021 40 WP MM OMAIS 2021-08-17 15:00:00 NR 13.6031 141.101 PROVISIONAL 1688 1615 P_____________ WP162021 13.7005 140.796 22 1010 -1 1011 165 80 16 280
2021223N12179 2021 40 WP MM OMAIS 2021-08-17 18:00:00 NR 13.7514 140.365 PROVISIONAL 1616 1555 O_____________ tcvightals WP162021 13.9000 139.900 19 1012 -1 1012 170 80 13 282
2021223N12179 2021 40 WP MM OMAIS 2021-08-17 21:00:00 NR 13.8841 139.762 PROVISIONAL 1555 1504 P_____________ WP162021 13.9191 139.539 19 1010 -1 1011 170 80 11 286
2021223N12179 2021 40 WP MM OMAIS 2021-08-18 00:00:00 NR 14.0667 139.233 PROVISIONAL 1495 1448 O_____________ tcvitals WP162021 14.0000 139.300 19 1009 -1 1010 170 80 11 295
2021223N12179 2021 40 WP MM OMAIS 2021-08-18 03:00:00 NR 14.3577 138.693 PROVISIONAL 1450 1402 P_____________ WP162021 14.3628 138.723 19 1007 -1 1008 148 65 12 301
2021223N12179 2021 40 WP MM OMAIS 2021-08-18 06:00:00 NR 14.6894 138.171 PROVISIONAL 1402 1353 O_____________ tcvightals WP162021 14.8000 138.100 19 1005 -1 1007 126 50 12 302
2021223N12179 2021 40 WP MM OMAIS 2021-08-18 09:00:00 NR 14.9972 137.649 PROVISIONAL 1345 1310 P_____________ WP162021 15.1450 137.568 19 1006 -1 1008 126 50 11 302
2021223N12179 2021 40 WP MM OMAIS 2021-08-18 12:00:00 NR 15.2935 137.185 PROVISIONAL 1310 1285 O_____________ tcvightals WP162021 15.4000 137.200 19 1007 -1 1009 126 50 9 306
2021223N12179 2021 40 WP MM OMAIS 2021-08-18 15:00:00 NR 15.5512 136.863 PROVISIONAL 1288 1253 P_____________ WP162021 15.4543 137.209 19 1006 -1 1009 126 50 9 311
2021223N12179 2021 40 WP MM OMAIS 2021-08-18 18:00:00 NR 15.8510 136.514 PROVISIONAL 1257 1217 O_____________ tcvightals WP162021 15.6000 137.100 19 1005 -1 1009 126 50 11 310
2021223N12179 2021 40 WP MM OMAIS 2021-08-18 21:00:00 NR 16.2777 135.962 PROVISIONAL 1221 1179 P_____________ WP162021 16.1559 136.349 22 1004 -1 1008 126 45 14 308
2021223N12179 2021 40 WP MM OMAIS 2021-08-19 00:00:00 NR 16.7333 135.333 PROVISIONAL 1169 1131 O_____________ tcvitals WP162021 16.8000 135.400 25 1004 -1 1008 126 40 15 305
2021223N12179 2021 40 WP MM OMAIS 2021-08-19 03:00:00 NR 17.1174 134.714 PROVISIONAL 1131 1092 P_____________ WP162021 17.2297 134.654 25 1004 -1 1007 113 40 14 302
2021223N12179 2021 40 WP MM OMAIS 2021-08-19 06:00:00 NR 17.4622 134.115 PROVISIONAL 1098 1065 O_____________ tcvightals WP162021 17.6000 134.000 25 1005 -1 1007 100 40 13 301
2021223N12179 2021 40 WP MM OMAIS 2021-08-19 09:00:00 NR 17.7793 133.549 PROVISIONAL 1063 1027 P_____________ WP162021 18.0523 133.398 25 1005 -1 1008 100 40 12 299
2021223N12179 2021 40 WP MM OMAIS 2021-08-19 12:00:00 TS 18.0443 133.020 PROVISIONAL 1027 999 O_____________ tcvightals WP162021 18.4000 132.900 25 1005 -1 1009 100 40 11 295
2021223N12179 2021 40 WP MM OMAIS 2021-08-19 15:00:00 TS 18.2400 132.531 PROVISIONAL 990 964 P_____________ WP162021 18.4719 132.564 27 1005 -1 1009 115 40 10 292
2021223N12179 2021 40 WP MM OMAIS 2021-08-19 18:00:00 TS 18.4207 132.040 PROVISIONAL 955 922 O_____________ tcvightals WP162021 18.5000 132.200 29 1005 -1 1009 130 40 11 293
2021223N12179 2021 40 WP MM OMAIS 2021-08-19 21:00:00 TS 18.6621 131.478 PROVISIONAL 928 899 P_____________ WP162021 18.7505 131.558 29 1005 -1 1009 130 40 12 295
2021223N12179 2021 40 WP MM OMAIS 2021-08-20 00:00:00 TS 18.9000 130.933 PROVISIONAL 890 866 O_____________ tcvitals WP162021 19.0000 130.900 29 1006 -1 1010 130 40 10 294
2021223N12179 2021 40 WP MM OMAIS 2021-08-20 03:00:00 TS 19.0862 130.479 PROVISIONAL 866 825 P_____________ WP162021 19.0797 130.447 29 1005 -1 1009 117 40 9 294
2021223N12179 2021 40 WP MM OMAIS 2021-08-20 06:00:00 TS 19.2539 130.093 PROVISIONAL 826 796 O_____________ tcvightals WP162021 19.1000 130.100 29 1004 -1 1008 105 40 8 295
2021223N12179 2021 40 WP MM OMAIS 2021-08-20 09:00:00 TS 19.4031 129.756 PROVISIONAL 796 767 P_____________ WP162021 19.0974 129.770 29 1004 -1 1008 100 40 7 301
2021223N12179 2021 40 WP MM OMAIS 2021-08-20 12:00:00 TS 19.6144 129.463 PROVISIONAL 768 743 O_____________ tcvightals WP162021 19.2000 129.500 29 1005 -1 60 1009 95 40 8 316
2021223N12179 2021 40 WP MM OMAIS 2021-08-20 15:00:00 TS 19.9504 129.202 PROVISIONAL 746 727 P_____________ WP162021 19.5023 129.322 32 1005 -1 60 1008 102 40 9 327
2021223N12179 2021 40 WP MM OMAIS 2021-08-20 18:00:00 TS 20.3844 128.926 PROVISIONAL 727 712 O_____________ tcvightals WP162021 20.0000 129.100 35 1005 0 20 60 30 1008 110 40 11 328
2021223N12179 2021 40 WP MM OMAIS 2021-08-20 21:00:00 TS 20.8981 128.565 PROVISIONAL 716 701 P_____________ WP162021 20.7153 128.659 40 1002 0 35 70 20 1007 110 32 12 326
2021223N12179 2021 40 WP MM OMAIS 2021-08-21 00:00:00 TS 21.4000 128.200 PROVISIONAL 702 686 O_____________ tcvitals WP162021 21.4000 128.200 45 999 0 50 80 10 1007 110 25 11 324
2021223N12179 2021 40 WP MM OMAIS 2021-08-21 03:00:00 TS 21.7580 127.887 PROVISIONAL 683 640 P_____________ WP162021 21.7521 127.923 45 998 0 52 82 17 1007 110 25 9 320
2021223N12179 2021 40 WP MM OMAIS 2021-08-21 06:00:00 TS 22.0736 127.598 PROVISIONAL 640 598 O_____________ tcvightals WP162021 22.0000 127.700 45 998 0 55 85 25 1007 110 25 9 321
2021223N12179 2021 40 WP MM OMAIS 2021-08-21 09:00:00 TS 22.4322 127.290 PROVISIONAL 598 552 P_____________ WP162021 22.3359 127.428 46 997 0 52 77 1007 105 22 9 322
2021223N12179 2021 40 WP MM OMAIS 2021-08-21 12:00:00 TS 22.7960 126.991 PROVISIONAL 552 512 I_____________ tcvightals WP162021 22.7016 127.150 48 996 0 50 70 1008 100 20 65 9 324
2021223N12179 2021 40 WP MM OMAIS 2021-08-21 15:00:00 TS 23.1523 126.720 PROVISIONAL 509 480 P_____________ WP162021 23.0933 126.893 49 995 0 62 77 1007 105 22 9 325
2021223N12179 2021 40 WP MM OMAIS 2021-08-21 18:00:00 TS 23.5112 126.446 PROVISIONAL 470 440 O_____________ tcvightals WP162021 23.5000 126.600 51 994 0 75 85 30 45 1007 110 25 9 324
2021223N12179 2021 40 WP MM OMAIS 2021-08-21 21:00:00 TS 23.8769 126.135 PROVISIONAL 430 394 P_____________ WP162021 23.9125 126.201 48 996 0 62 65 30 37 1007 110 27 9 323
2021223N12179 2021 40 WP MM OMAIS 2021-08-22 00:00:00 TS 24.2685 125.827 PROVISIONAL 391 365 O_____________ tcvitals WP162021 24.3000 125.800 45 998 0 50 45 30 30 1008 110 30 10 326
2021223N12179 2021 40 WP MM OMAIS 2021-08-22 03:00:00 TS 24.6719 125.542 PROVISIONAL 354 332 P_____________ WP162021 24.5965 125.473 42 996 0 42 32 25 30 1007 95 30 10 331
2021223N12179 2021 40 WP MM OMAIS 2021-08-22 06:00:00 TS 25.1110 125.317 PROVISIONAL 332 323 I_____________ tcvightals WP162021 24.9331 125.245 40 995 0 35 20 20 30 1006 80 30 10 340
2021223N12179 2021 40 WP MM OMAIS 2021-08-22 09:00:00 TS 25.5841 125.182 PROVISIONAL 328 320 P_____________ WP162021 25.4239 125.145 37 994 0 27 25 1006 80 27 10 348
2021223N12179 2021 40 WP MM OMAIS 2021-08-22 12:00:00 TS 26.0871 125.091 PROVISIONAL 334 333 O_____________ tcgp WP162021 26.0000 125.100 TS 35 993 0 35 30 1006 80 25 45 11 351
2021223N12179 2021 40 WP MM OMAIS 2021-08-22 15:00:00 TS 26.6466 124.993 PROVISIONAL 349 349 P_____________ WP162021 26.5525 124.945 TS 35 997 0 40 1006 80 35 12 356
2021223N12179 2021 40 WP MM OMAIS 2021-08-22 18:00:00 TS 27.2973 124.996 PROVISIONAL 352 335 O_____________ tcgp WP162021 27.2000 124.900 TS 35 1001 0 40 45 1006 80 45 14 8
2021223N12179 2021 40 WP MM OMAIS 2021-08-22 21:00:00 TS 28.0337 125.208 PROVISIONAL 339 333 P_____________ WP162021 27.9604 125.176 TS 32 1000 -1 1006 82 40 17 15
2021223N12179 2021 40 WP MM OMAIS 2021-08-23 00:00:00 TS 28.9000 125.500 PROVISIONAL 341 339 O_____________ tcvitals WP162021 28.9000 125.500 TS 29 1000 -1 1007 85 35 19 13
2021223N12179 2021 40 WP MM OMAIS 2021-08-23 03:00:00 TS 29.9166 125.694 PROVISIONAL 365 246 P_____________ WP162021 30.0545 125.502 TS 27 999 -1 1006 87 42 22 11
2021223N12179 2021 40 WP MM OMAIS 2021-08-23 06:00:00 TS 31.0176 125.997 PROVISIONAL 246 122 O_____________ tcgp WP162021 31.3000 125.600 TD 25 998 -1 1005 90 50 23 18
2021223N12179 2021 40 WP MM OMAIS 2021-08-23 09:00:00 TS 32.1179 126.537 PROVISIONAL 122 43 P_____________ WP162021 32.4785 126.064 TD 25 998 -1 1004 90 42 25 27
2021223N12179 2021 40 WP MM OMAIS 2021-08-23 12:00:00 TS 33.2162 127.311 PROVISIONAL 47 47 O_____________ tcgp WP162021 33.6000 126.900 TD 25 998 -1 1003 90 35 27 35
2021223N12179 2021 40 WP MM OMAIS 2021-08-23 15:00:00 TS 34.2939 128.341 PROVISIONAL 55 0 P_____________ WP162021 34.6404 128.160 TD 25 1001 -1 1003 90 35 28 40
2021223N12179 2021 40 WP MM OMAIS 2021-08-23 18:00:00 ET 35.3446 129.447 PROVISIONAL 9 9 O_____________ tcgp WP162021 35.6000 129.500 EX 25 1004 -4 1003 90 35 27 39
2021223N12179 2021 40 WP MM OMAIS 2021-08-23 21:00:00 ET 36.3777 130.419 PROVISIONAL 84 84 P_____________ WP162021 36.5109 130.512 EX 25 1000 -4 1001 75 35 25 36
2021223N12179 2021 40 WP MM OMAIS 2021-08-24 00:00:00 ET 37.4000 131.300 PROVISIONAL 171 O_____________ tcvitals WP162021 37.4000 131.300 25 997 -1 999 60 35 25 34

デジタル台風データ・検索

IBTrACS Databaseについて

本データベースは、米国NOAAが公開する1842年以降の世界の熱帯低気圧のベストトラックデータアーカイブInternational Best Track Archive for Climate Stewardship (IBTrACS)を、ウェブで閲覧しやすい形式に変換したものです。

最終更新日:2022-05-13